Time;durP1;ratioP1;P1;durP2;ratioP2;P2;SDS_P1;SDS_P2;PMS_P1;PMS_P2;Temp;Humidity;BMP_temperature;BMP_pressure;BME280_temperature;BME280_humidity;BME280_pressure;Samples;Min_cycle;Max_cycle;Signal;HPM_P1;HPM_P2
2023/01/31 00:00:53;;;;;;;;;;;19.50;43.80;;;;;;5091639;28;19924;-60
2023/01/31 00:03:19;;;;;;;;;;;19.50;43.80;;;;;;5062119;28;19920;-60
2023/01/31 00:05:48;;;;;;;;;;;19.50;43.80;;;;;;5071609;28;19924;-60
2023/01/31 00:08:14;;;;;;;;;;;19.50;43.80;;;;;;5091469;28;19928;-60
2023/01/31 00:10:41;;;;;;;;;;;19.50;43.80;;;;;;5091454;28;19924;-58
2023/01/31 00:13:08;;;;;;;;;;;19.50;43.80;;;;;;5091582;28;19966;-61
2023/01/31 00:15:35;;;;;;;;;;;19.50;43.80;;;;;;5073332;28;20037;-59
2023/01/31 00:18:01;;;;;;;;;;;19.50;43.80;;;;;;5070438;28;19967;-59
2023/01/31 00:20:28;;;;;;;;;;;19.50;43.70;;;;;;5067568;28;19924;-63
2023/01/31 00:22:56;;;;;;;;;;;19.40;43.60;;;;;;5072002;28;19985;-61
2023/01/31 00:25:23;;;;;;;;;;;19.50;43.70;;;;;;5072898;28;19920;-61
2023/01/31 00:27:50;;;;;;;;;;;19.40;43.60;;;;;;5073178;28;19920;-62
2023/01/31 00:30:17;;;;;;;;;;;19.40;43.60;;;;;;5091122;28;19981;-63
2023/01/31 00:32:44;;;;;;;;;;;19.40;43.60;;;;;;5072772;28;19932;-63
2023/01/31 00:35:11;;;;;;;;;;;19.40;43.60;;;;;;5090458;28;20080;-60
2023/01/31 00:37:37;;;;;;;;;;;19.40;43.60;;;;;;5074777;28;19978;-60
2023/01/31 00:40:07;;;;;;;;;;;19.40;43.50;;;;;;5081024;28;19920;-63
2023/01/31 00:42:34;;;;;;;;;;;19.40;43.50;;;;;;5072738;28;19927;-58
2023/01/31 00:45:01;;;;;;;;;;;19.40;43.50;;;;;;5090852;28;19959;-60
2023/01/31 00:47:27;;;;;;;;;;;19.40;43.50;;;;;;5072544;28;19954;-59
2023/01/31 00:49:54;;;;;;;;;;;19.40;43.50;;;;;;5072478;28;19920;-60
2023/01/31 00:52:21;;;;;;;;;;;19.40;43.50;;;;;;5090656;28;19924;-59
2023/01/31 00:54:48;;;;;;;;;;;19.40;43.50;;;;;;5089723;28;19924;-59
2023/01/31 00:57:16;;;;;;;;;;;19.40;43.50;;;;;;5072645;28;19927;-64
2023/01/31 00:59:43;;;;;;;;;;;19.40;43.50;;;;;;5090425;28;19928;-60
2023/01/31 01:02:09;;;;;;;;;;;19.40;43.50;;;;;;5072000;28;19959;-60
2023/01/31 01:04:36;;;;;;;;;;;19.40;43.50;;;;;;5072618;28;19920;-61
2023/01/31 01:07:03;;;;;;;;;;;19.40;43.50;;;;;;5090750;28;19946;-66
2023/01/31 01:09:29;;;;;;;;;;;19.40;43.50;;;;;;5067448;28;19977;-60
2023/01/31 01:11:56;;;;;;;;;;;19.40;43.50;;;;;;5072460;28;19955;-60
2023/01/31 01:14:25;;;;;;;;;;;19.40;43.50;;;;;;5090218;28;19966;-66
2023/01/31 01:16:52;;;;;;;;;;;19.40;43.50;;;;;;5072192;28;20378;-60
2023/01/31 01:19:20;;;;;;;;;;;19.40;43.50;;;;;;5072307;28;20079;-60
2023/01/31 01:21:47;;;;;;;;;;;19.40;43.50;;;;;;5090756;28;19935;-59
2023/01/31 01:24:14;;;;;;;;;;;19.40;43.50;;;;;;5067544;28;19924;-59
2023/01/31 01:26:41;;;;;;;;;;;19.40;43.50;;;;;;5069133;28;22316;-58
2023/01/31 01:29:08;;;;;;;;;;;19.40;43.50;;;;;;5069870;28;19951;-59
2023/01/31 01:31:37;;;;;;;;;;;19.40;43.50;;;;;;5071693;28;20034;-59
2023/01/31 01:34:04;;;;;;;;;;;19.40;43.50;;;;;;5072047;28;20135;-63
2023/01/31 01:36:32;;;;;;;;;;;19.40;43.50;;;;;;5072811;28;19981;-59
2023/01/31 01:38:59;;;;;;;;;;;19.40;43.50;;;;;;5072458;28;19942;-59
2023/01/31 01:41:26;;;;;;;;;;;19.40;43.50;;;;;;5071893;28;19969;-64
2023/01/31 01:43:53;;;;;;;;;;;19.40;43.50;;;;;;5070475;28;19923;-60
2023/01/31 01:46:20;;;;;;;;;;;19.30;43.40;;;;;;5086897;28;19920;-61
2023/01/31 01:48:49;;;;;;;;;;;19.30;43.40;;;;;;5089976;28;19920;-59
2023/01/31 01:51:18;;;;;;;;;;;19.30;43.40;;;;;;5089757;28;19946;-59
2023/01/31 01:53:44;;;;;;;;;;;19.30;43.30;;;;;;5105353;28;19920;-60
2023/01/31 01:56:12;;;;;;;;;;;19.30;43.30;;;;;;5089868;28;20320;-59
2023/01/31 01:58:39;;;;;;;;;;;19.30;43.30;;;;;;5071872;28;20431;-60
2023/01/31 02:01:06;;;;;;;;;;;19.30;43.30;;;;;;5085555;28;19927;-59
2023/01/31 02:03:33;;;;;;;;;;;19.30;43.30;;;;;;5051437;28;19921;-60
2023/01/31 02:06:02;;;;;;;;;;;19.30;43.30;;;;;;5064901;28;19927;-61
2023/01/31 02:08:29;;;;;;;;;;;19.30;43.30;;;;;;5090153;28;19923;-64
2023/01/31 02:10:56;;;;;;;;;;;19.30;43.30;;;;;;5072801;28;19986;-59
2023/01/31 02:13:23;;;;;;;;;;;19.30;43.30;;;;;;5109425;28;19928;-60
2023/01/31 02:15:49;;;;;;;;;;;19.30;43.30;;;;;;5109379;28;19975;-59
2023/01/31 02:18:16;;;;;;;;;;;19.30;43.30;;;;;;5074687;28;19920;-59
2023/01/31 02:21:08;;;;;;;;;;;19.30;43.30;;;;;;5065875;28;19935;-60
2023/01/31 02:23:50;;;;;;;;;;;19.30;43.30;;;;;;5093711;28;19928;-62
2023/01/31 02:26:28;;;;;;;;;;;19.30;43.30;;;;;;5080357;28;19920;-59
2023/01/31 02:29:02;;;;;;;;;;;19.30;43.30;;;;;;5099000;28;19963;-61
2023/01/31 02:31:44;;;;;;;;;;;19.30;43.30;;;;;;5089107;28;19959;-63
2023/01/31 02:34:12;;;;;;;;;;;19.30;43.30;;;;;;5075877;28;19920;-59
2023/01/31 02:36:42;;;;;;;;;;;19.30;43.30;;;;;;5078274;28;19934;-63
2023/01/31 02:39:11;;;;;;;;;;;19.30;43.30;;;;;;5075589;28;19928;-60
2023/01/31 02:41:39;;;;;;;;;;;19.30;43.30;;;;;;5093096;28;20385;-60
2023/01/31 02:46:52;;;;;;;;;;;19.30;43.30;;;;;;5074895;28;19946;-63
2023/01/31 02:49:33;;;;;;;;;;;19.30;43.30;;;;;;5070848;28;19956;-63
2023/01/31 02:57:23;;;;;;;;;;;19.30;43.20;;;;;;5053369;28;19921;-62
2023/01/31 02:59:50;;;;;;;;;;;19.30;43.20;;;;;;5073056;28;20416;-60
2023/01/31 03:02:16;;;;;;;;;;;19.30;43.20;;;;;;5074436;28;19920;-61
2023/01/31 03:04:45;;;;;;;;;;;19.30;43.30;;;;;;5074665;28;19997;-63
2023/01/31 03:07:13;;;;;;;;;;;19.30;43.20;;;;;;5088068;28;19924;-63
2023/01/31 03:09:41;;;;;;;;;;;19.30;43.20;;;;;;5088122;28;19921;-60
2023/01/31 03:12:17;;;;;;;;;;;19.30;43.20;;;;;;5073452;28;19920;-64
2023/01/31 03:14:45;;;;;;;;;;;19.30;43.20;;;;;;5074551;28;19926;-62
2023/01/31 03:19:58;;;;;;;;;;;19.30;43.20;;;;;;5092920;28;19948;-64
2023/01/31 03:22:26;;;;;;;;;;;19.30;43.20;;;;;;5078694;28;19925;-61
2023/01/31 03:24:52;;;;;;;;;;;19.30;43.20;;;;;;5067460;28;19924;-63
2023/01/31 03:27:19;;;;;;;;;;;19.30;43.20;;;;;;5092395;28;19924;-65
2023/01/31 03:29:46;;;;;;;;;;;19.30;43.30;;;;;;5092523;28;20388;-59
2023/01/31 03:32:15;;;;;;;;;;;19.30;43.20;;;;;;5092133;28;19924;-61
2023/01/31 03:34:41;;;;;;;;;;;19.30;43.20;;;;;;5092507;28;19920;-59
2023/01/31 03:37:11;;;;;;;;;;;19.30;43.20;;;;;;5076520;28;19981;-60
2023/01/31 03:39:38;;;;;;;;;;;19.30;43.20;;;;;;5069962;28;19982;-64
2023/01/31 03:42:06;;;;;;;;;;;19.30;43.20;;;;;;5070999;28;20243;-62
2023/01/31 03:44:35;;;;;;;;;;;19.30;43.20;;;;;;5074185;28;19920;-60
2023/01/31 03:47:04;;;;;;;;;;;19.30;43.30;;;;;;5107682;28;19925;-60
2023/01/31 03:49:30;;;;;;;;;;;19.30;43.20;;;;;;5073840;28;19966;-60
2023/01/31 03:51:58;;;;;;;;;;;19.20;43.20;;;;;;5074087;28;19924;-64
2023/01/31 03:54:27;;;;;;;;;;;19.20;43.20;;;;;;5073821;28;19969;-62
2023/01/31 03:56:55;;;;;;;;;;;19.20;43.20;;;;;;5072120;28;19920;-59
2023/01/31 03:59:22;;;;;;;;;;;19.30;43.20;;;;;;5091839;28;19920;-63
2023/01/31 04:01:49;;;;;;;;;;;19.20;43.20;;;;;;5073569;28;20010;-59
2023/01/31 04:04:18;;;;;;;;;;;19.20;43.20;;;;;;5092387;28;19920;-61
2023/01/31 04:06:44;;;;;;;;;;;19.30;43.20;;;;;;5073721;28;19928;-59
2023/01/31 04:09:11;;;;;;;;;;;19.20;43.10;;;;;;5091791;28;19974;-59
2023/01/31 04:11:40;;;;;;;;;;;19.20;43.10;;;;;;5073425;28;19919;-64
2023/01/31 04:14:06;;;;;;;;;;;19.20;43.10;;;;;;5061465;28;19943;-61
2023/01/31 04:16:33;;;;;;;;;;;19.20;43.10;;;;;;5063679;28;19928;-60
2023/01/31 04:19:00;;;;;;;;;;;19.20;43.10;;;;;;5073084;28;19981;-64
2023/01/31 04:21:26;;;;;;;;;;;19.20;43.10;;;;;;5073289;28;19949;-64
2023/01/31 04:23:53;;;;;;;;;;;19.20;43.10;;;;;;5091619;28;19927;-59
2023/01/31 04:26:20;;;;;;;;;;;19.20;43.10;;;;;;5073180;28;20007;-64
2023/01/31 04:28:48;;;;;;;;;;;19.20;43.10;;;;;;5073067;28;19920;-60
2023/01/31 04:31:15;;;;;;;;;;;19.20;43.10;;;;;;5062879;28;19967;-59
2023/01/31 04:33:42;;;;;;;;;;;19.20;43.10;;;;;;5106022;28;19974;-60
2023/01/31 04:36:09;;;;;;;;;;;19.20;43.10;;;;;;5087015;28;20332;-61
2023/01/31 04:38:35;;;;;;;;;;;19.20;43.10;;;;;;5073062;28;19924;-61
2023/01/31 04:41:02;;;;;;;;;;;19.20;43.10;;;;;;5073046;28;19969;-65
2023/01/31 04:43:29;;;;;;;;;;;19.20;43.00;;;;;;5073020;28;19963;-60
2023/01/31 04:45:57;;;;;;;;;;;19.20;43.00;;;;;;5072003;28;19924;-59
2023/01/31 04:48:24;;;;;;;;;;;19.20;43.10;;;;;;5090605;28;19932;-59
2023/01/31 04:50:50;;;;;;;;;;;19.20;43.00;;;;;;5072815;28;19939;-60
2023/01/31 04:53:17;;;;;;;;;;;19.20;43.00;;;;;;5090621;28;19920;-60
2023/01/31 04:55:44;;;;;;;;;;;19.20;43.00;;;;;;5090648;28;19981;-62
2023/01/31 04:58:11;;;;;;;;;;;19.20;43.00;;;;;;5072734;28;19920;-60
2023/01/31 05:00:38;;;;;;;;;;;19.20;43.00;;;;;;5070594;28;20357;-62
2023/01/31 05:03:06;;;;;;;;;;;19.20;43.00;;;;;;5071941;28;19924;-61
2023/01/31 05:05:33;;;;;;;;;;;19.20;43.00;;;;;;5072924;28;19920;-61
2023/01/31 05:08:00;;;;;;;;;;;19.20;43.00;;;;;;5072592;28;19919;-60
2023/01/31 05:10:27;;;;;;;;;;;19.20;43.00;;;;;;5072417;28;19920;-61
2023/01/31 05:12:53;;;;;;;;;;;19.20;43.00;;;;;;5090307;28;19960;-65
2023/01/31 05:15:21;;;;;;;;;;;19.20;43.00;;;;;;5090803;28;19920;-60
2023/01/31 05:17:52;;;;;;;;;;;19.20;43.00;;;;;;5055226;28;20037;-61
2023/01/31 05:20:20;;;;;;;;;;;19.20;42.90;;;;;;5053196;28;20342;-65
2023/01/31 05:22:47;;;;;;;;;;;19.20;43.00;;;;;;5090293;28;19927;-60
2023/01/31 05:25:14;;;;;;;;;;;19.20;42.90;;;;;;5065679;28;19921;-62
2023/01/31 05:27:42;;;;;;;;;;;19.20;42.90;;;;;;5068257;28;20016;-59
2023/01/31 05:30:10;;;;;;;;;;;19.20;43.00;;;;;;5072144;28;19919;-60
2023/01/31 05:32:38;;;;;;;;;;;19.20;43.50;;;;;;5071537;28;19924;-65
2023/01/31 05:35:05;;;;;;;;;;;19.20;42.90;;;;;;5080656;28;19924;-59
2023/01/31 05:37:33;;;;;;;;;;;19.20;42.90;;;;;;5074204;28;19985;-64
2023/01/31 05:40:00;;;;;;;;;;;19.20;42.90;;;;;;5086166;28;19924;-59
2023/01/31 05:42:27;;;;;;;;;;;19.20;42.90;;;;;;5064776;28;20319;-61
2023/01/31 05:44:54;;;;;;;;;;;19.20;42.90;;;;;;5069373;28;20370;-60
2023/01/31 05:47:22;;;;;;;;;;;19.20;42.90;;;;;;5089786;28;19927;-62
2023/01/31 05:49:49;;;;;;;;;;;19.20;42.90;;;;;;5071669;28;19920;-61
2023/01/31 05:52:16;;;;;;;;;;;19.20;43.00;;;;;;5088578;28;19932;-60
2023/01/31 05:54:44;;;;;;;;;;;19.20;42.90;;;;;;5052099;28;19970;-61
2023/01/31 05:57:10;;;;;;;;;;;19.20;42.90;;;;;;5062154;28;19927;-61
2023/01/31 05:59:37;;;;;;;;;;;19.20;42.90;;;;;;5071741;28;19988;-59
2023/01/31 06:02:04;;;;;;;;;;;19.20;42.90;;;;;;5061520;28;19971;-59
2023/01/31 06:04:31;;;;;;;;;;;19.20;42.90;;;;;;5051908;28;19977;-63
2023/01/31 06:06:57;;;;;;;;;;;19.20;42.90;;;;;;5059967;28;19920;-68
2023/01/31 06:09:24;;;;;;;;;;;19.20;42.90;;;;;;5059271;28;19927;-61
2023/01/31 06:11:52;;;;;;;;;;;19.20;42.90;;;;;;5058531;28;19920;-63
2023/01/31 06:14:19;;;;;;;;;;;19.20;42.90;;;;;;5071724;28;19920;-61
2023/01/31 06:16:46;;;;;;;;;;;19.20;42.90;;;;;;5071432;28;20289;-61
2023/01/31 06:19:13;;;;;;;;;;;19.10;42.80;;;;;;5063570;28;19974;-60
2023/01/31 06:21:39;;;;;;;;;;;19.20;42.80;;;;;;5056473;28;19920;-64
2023/01/31 06:24:06;;;;;;;;;;;19.20;42.90;;;;;;5066813;28;19935;-60
2023/01/31 06:26:33;;;;;;;;;;;19.20;42.90;;;;;;5063000;28;19998;-64
2023/01/31 06:29:01;;;;;;;;;;;19.20;42.90;;;;;;5071783;28;19950;-60
2023/01/31 06:31:28;;;;;;;;;;;19.20;42.90;;;;;;5071393;28;19920;-62
2023/01/31 06:33:55;;;;;;;;;;;19.20;42.90;;;;;;5071325;28;19920;-59
2023/01/31 06:36:21;;;;;;;;;;;19.20;42.90;;;;;;5088691;28;19928;-64
2023/01/31 06:38:49;;;;;;;;;;;19.20;42.90;;;;;;5088968;28;19920;-67
2023/01/31 06:41:15;;;;;;;;;;;19.20;42.90;;;;;;5051294;28;19920;-65
2023/01/31 06:43:42;;;;;;;;;;;19.10;42.70;;;;;;5090170;28;19920;-61
2023/01/31 06:46:11;;;;;;;;;;;19.20;42.80;;;;;;5071086;28;20013;-61
2023/01/31 06:48:37;;;;;;;;;;;19.10;42.80;;;;;;5070923;28;19956;-59
2023/01/31 06:51:04;;;;;;;;;;;19.10;42.70;;;;;;5071419;28;19920;-62
2023/01/31 06:53:31;;;;;;;;;;;19.20;42.90;;;;;;5071037;28;19924;-63
2023/01/31 06:55:58;;;;;;;;;;;19.20;42.80;;;;;;5071660;28;19920;-60
2023/01/31 06:58:25;;;;;;;;;;;19.10;42.70;;;;;;5057626;28;19924;-59
2023/01/31 07:00:51;;;;;;;;;;;19.10;42.70;;;;;;5054925;28;20423;-60
2023/01/31 07:03:19;;;;;;;;;;;19.20;42.80;;;;;;5070630;28;19963;-60
2023/01/31 07:05:47;;;;;;;;;;;19.10;42.70;;;;;;5074901;28;19923;-63
2023/01/31 07:08:14;;;;;;;;;;;19.10;42.70;;;;;;5074765;28;19932;-58
2023/01/31 07:10:41;;;;;;;;;;;19.10;42.70;;;;;;5074609;28;20005;-60
2023/01/31 07:13:08;;;;;;;;;;;19.20;42.80;;;;;;5066827;28;19928;-59
2023/01/31 07:15:34;;;;;;;;;;;19.20;42.80;;;;;;5088084;28;19920;-63
2023/01/31 07:18:01;;;;;;;;;;;19.10;42.70;;;;;;5067205;28;19924;-61
2023/01/31 07:20:29;;;;;;;;;;;19.20;42.80;;;;;;5074634;28;19920;-60
2023/01/31 07:22:56;;;;;;;;;;;19.10;42.70;;;;;;5074518;28;19924;-59
2023/01/31 07:25:23;;;;;;;;;;;19.10;42.70;;;;;;5074084;28;20435;-61
2023/01/31 07:27:50;;;;;;;;;;;19.10;42.70;;;;;;5093913;28;19989;-63
2023/01/31 07:30:17;;;;;;;;;;;19.10;42.70;;;;;;5061434;28;19925;-59
2023/01/31 07:32:44;;;;;;;;;;;19.10;42.70;;;;;;5098263;28;19932;-61
2023/01/31 07:35:10;;;;;;;;;;;19.10;42.70;;;;;;5073721;28;19920;-62
2023/01/31 07:37:39;;;;;;;;;;;19.10;42.70;;;;;;5091886;28;19931;-64
2023/01/31 07:40:07;;;;;;;;;;;19.10;42.70;;;;;;5091384;28;20018;-59
2023/01/31 07:42:33;;;;;;;;;;;19.10;42.70;;;;;;5073563;28;20022;-62
2023/01/31 07:45:00;;;;;;;;;;;19.10;42.60;;;;;;5073402;28;19966;-58
2023/01/31 07:47:27;;;;;;;;;;;19.10;42.60;;;;;;5073150;28;20275;-67
2023/01/31 07:49:53;;;;;;;;;;;19.10;42.70;;;;;;5073775;28;19955;-64
2023/01/31 07:52:20;;;;;;;;;;;19.10;42.70;;;;;;5073388;28;19924;-60
2023/01/31 07:54:48;;;;;;;;;;;19.10;42.70;;;;;;5091700;28;19971;-63
2023/01/31 07:57:16;;;;;;;;;;;19.10;42.70;;;;;;5092063;28;19981;-61
2023/01/31 07:59:43;;;;;;;;;;;19.10;42.70;;;;;;5073797;28;20454;-59
2023/01/31 08:04:55;;;;;;;;;;;19.10;42.70;;;;;;5072474;28;19920;-60
2023/01/31 08:07:21;;;;;;;;;;;19.10;42.60;;;;;;5078525;28;19966;-60
2023/01/31 08:09:49;;;;;;;;;;;19.10;42.60;;;;;;5072065;28;20003;-60
2023/01/31 08:12:16;;;;;;;;;;;19.10;42.60;;;;;;5066265;28;20001;-60
2023/01/31 08:14:43;;;;;;;;;;;19.10;42.60;;;;;;5053268;28;19921;-60
2023/01/31 08:17:10;;;;;;;;;;;19.10;42.30;;;;;;5088467;28;19924;-59
2023/01/31 08:19:37;;;;;;;;;;;19.10;41.90;;;;;;5065768;28;20250;-59
2023/01/31 08:22:04;;;;;;;;;;;19.10;41.50;;;;;;5090624;28;20430;-61
2023/01/31 08:24:31;;;;;;;;;;;19.10;41.20;;;;;;5090933;28;19920;-59
2023/01/31 08:26:59;;;;;;;;;;;19.10;41.00;;;;;;5066497;28;20070;-61
2023/01/31 08:29:26;;;;;;;;;;;19.00;40.90;;;;;;5068594;28;19932;-61
2023/01/31 08:31:53;;;;;;;;;;;19.10;40.90;;;;;;5058169;28;19928;-61
2023/01/31 08:34:19;;;;;;;;;;;19.00;40.90;;;;;;5068345;28;19978;-61
2023/01/31 08:36:47;;;;;;;;;;;19.00;40.80;;;;;;5057279;28;19920;-60
2023/01/31 08:39:13;;;;;;;;;;;19.00;40.80;;;;;;5060162;28;19920;-60
2023/01/31 08:41:40;;;;;;;;;;;19.00;40.80;;;;;;5069388;28;20012;-59
2023/01/31 08:44:08;;;;;;;;;;;19.00;40.80;;;;;;5070227;28;19951;-60
2023/01/31 08:46:35;;;;;;;;;;;19.00;40.80;;;;;;5069911;28;19989;-59
2023/01/31 08:49:03;;;;;;;;;;;19.00;41.10;;;;;;5095590;27;19977;-59
2023/01/31 08:51:29;;;;;;;;;;;19.00;40.80;;;;;;5076910;28;19965;-61
2023/01/31 08:53:56;;;;;;;;;;;19.00;40.80;;;;;;5066962;28;19920;-61
2023/01/31 08:56:24;;;;;;;;;;;19.00;40.80;;;;;;5071586;28;19949;-60
2023/01/31 08:58:51;;;;;;;;;;;19.00;40.80;;;;;;5084552;28;19927;-62
2023/01/31 09:01:20;;;;;;;;;;;19.00;40.70;;;;;;5071697;28;19977;-60
2023/01/31 09:03:47;;;;;;;;;;;19.00;41.40;;;;;;5071218;28;19985;-59
2023/01/31 09:06:14;;;;;;;;;;;19.00;40.70;;;;;;5070288;28;19920;-59
2023/01/31 09:08:41;;;;;;;;;;;19.00;40.80;;;;;;5099550;28;19957;-60
2023/01/31 09:11:07;;;;;;;;;;;19.00;40.80;;;;;;5060145;28;19924;-59
2023/01/31 09:13:34;;;;;;;;;;;19.00;40.70;;;;;;5071247;28;19970;-59
2023/01/31 09:16:03;;;;;;;;;;;19.00;40.70;;;;;;5071398;28;19920;-59
2023/01/31 09:18:32;;;;;;;;;;;19.00;40.70;;;;;;5070938;28;20281;-60
2023/01/31 09:21:03;;;;;;;;;;;19.00;40.70;;;;;;5081337;28;19959;-60
2023/01/31 09:23:29;;;;;;;;;;;19.00;40.70;;;;;;5084821;28;19927;-61
2023/01/31 09:25:56;;;;;;;;;;;19.00;40.70;;;;;;5088401;28;19989;-60
2023/01/31 09:28:23;;;;;;;;;;;19.00;41.00;;;;;;5070905;28;20371;-61
2023/01/31 09:30:52;;;;;;;;;;;19.00;41.10;;;;;;5071170;28;19920;-59
2023/01/31 09:33:19;;;;;;;;;;;19.00;41.10;;;;;;5085050;28;19931;-61
2023/01/31 09:35:56;;;;;;;;;;;19.00;41.20;;;;;;5072188;28;19948;-59
2023/01/31 09:38:23;;;;;;;;;;;19.00;41.30;;;;;;5068227;28;20149;-64
2023/01/31 09:40:50;;;;;;;;;;;19.00;41.40;;;;;;5082392;28;19927;-61
2023/01/31 09:43:17;;;;;;;;;;;19.00;41.50;;;;;;5071301;28;20155;-63
2023/01/31 09:45:43;;;;;;;;;;;19.00;41.50;;;;;;5070922;28;19924;-60
2023/01/31 09:48:13;;;;;;;;;;;19.00;41.60;;;;;;5070388;28;19928;-60
2023/01/31 09:50:40;;;;;;;;;;;19.00;41.60;;;;;;5070678;28;19924;-63
2023/01/31 09:53:10;;;;;;;;;;;19.00;41.70;;;;;;5066966;28;20034;-63
2023/01/31 09:55:38;;;;;;;;;;;19.00;41.80;;;;;;5059783;28;19971;-59
2023/01/31 09:58:07;;;;;;;;;;;19.10;41.90;;;;;;5065440;28;19920;-66
2023/01/31 10:00:35;;;;;;;;;;;19.10;42.00;;;;;;5065541;28;20413;-61
2023/01/31 10:03:04;;;;;;;;;;;19.10;42.00;;;;;;5084095;28;19924;-62
2023/01/31 10:05:33;;;;;;;;;;;19.10;42.00;;;;;;5078666;28;19988;-68
2023/01/31 10:08:02;;;;;;;;;;;19.10;42.10;;;;;;5070485;28;20378;-60
2023/01/31 10:10:32;;;;;;;;;;;19.10;42.10;;;;;;5070577;28;19990;-62
2023/01/31 10:12:58;;;;;;;;;;;19.10;42.10;;;;;;5066109;28;19927;-59
2023/01/31 10:15:31;;;;;;;;;;;19.10;42.10;;;;;;5068255;28;19920;-67
2023/01/31 10:17:58;;;;;;;;;;;19.10;42.10;;;;;;5066678;28;19924;-60
2023/01/31 10:20:27;;;;;;;;;;;19.20;42.30;;;;;;5075360;28;19947;-63
2023/01/31 10:22:55;;;;;;;;;;;19.20;42.30;;;;;;5064844;28;19924;-60
2023/01/31 10:25:25;;;;;;;;;;;19.20;42.30;;;;;;5063503;28;20419;-66
2023/01/31 10:27:54;;;;;;;;;;;19.20;42.30;;;;;;5088358;28;19924;-62
2023/01/31 10:30:21;;;;;;;;;;;19.20;42.30;;;;;;5090607;28;20355;-59
2023/01/31 10:32:50;;;;;;;;;;;19.20;42.40;;;;;;5061406;28;19920;-66
2023/01/31 10:35:18;;;;;;;;;;;19.20;42.40;;;;;;5070704;28;19970;-60
2023/01/31 10:37:46;;;;;;;;;;;19.20;42.40;;;;;;5087316;28;19978;-60
2023/01/31 10:40:13;;;;;;;;;;;19.20;42.40;;;;;;5060023;28;19984;-61
2023/01/31 10:42:41;;;;;;;;;;;19.30;42.50;;;;;;5062428;28;19931;-61
2023/01/31 10:45:12;;;;;;;;;;;19.20;42.50;;;;;;5071433;28;19955;-61
2023/01/31 10:47:39;;;;;;;;;;;19.30;42.50;;;;;;5061651;28;19968;-60
2023/01/31 10:50:11;;;;;;;;;;;19.30;42.60;;;;;;5090128;28;20025;-61
2023/01/31 10:52:45;;;;;;;;;;;19.30;42.60;;;;;;5089318;28;19927;-65
2023/01/31 10:55:18;;;;;;;;;;;19.30;42.60;;;;;;5073925;28;20366;-60
2023/01/31 10:57:45;;;;;;;;;;;19.30;42.60;;;;;;5062916;28;19950;-65
2023/01/31 11:00:17;;;;;;;;;;;19.30;42.60;;;;;;5065713;28;19920;-62
2023/01/31 11:02:44;;;;;;;;;;;19.30;42.60;;;;;;5078813;28;19960;-59
2023/01/31 11:05:14;;;;;;;;;;;19.30;42.60;;;;;;5067088;28;19928;-68
2023/01/31 11:07:41;;;;;;;;;;;19.30;42.60;;;;;;5064083;28;19924;-64
2023/01/31 11:10:20;;;;;;;;;;;19.30;42.70;;;;;;5080324;28;19966;-64
2023/01/31 11:12:51;;;;;;;;;;;19.30;42.70;;;;;;5087772;28;19931;-66
2023/01/31 11:15:20;;;;;;;;;;;19.30;42.70;;;;;;5098923;28;19975;-66
2023/01/31 11:17:46;;;;;;;;;;;19.30;42.70;;;;;;5092217;28;19981;-61
2023/01/31 11:20:19;;;;;;;;;;;19.30;43.30;;;;;;5073434;28;19920;-63
2023/01/31 11:22:46;;;;;;;;;;;19.30;42.80;;;;;;5056962;28;19933;-60
2023/01/31 11:25:15;;;;;;;;;;;19.30;42.80;;;;;;5068841;28;19924;-64
2023/01/31 11:27:43;;;;;;;;;;;19.40;42.90;;;;;;5094374;28;20432;-61
2023/01/31 11:30:19;;;;;;;;;;;19.40;42.90;;;;;;5087607;28;19929;-63
2023/01/31 11:32:47;;;;;;;;;;;19.40;42.90;;;;;;5069703;28;19927;-62
2023/01/31 11:35:22;;;;;;;;;;;19.40;42.90;;;;;;5091822;28;19920;-61
2023/01/31 11:37:49;;;;;;;;;;;19.40;42.90;;;;;;5087771;28;19979;-64
2023/01/31 11:40:20;;;;;;;;;;;19.40;42.90;;;;;;5080381;28;19963;-62
2023/01/31 11:42:54;;;;;;;;;;;19.40;43.00;;;;;;5061113;28;19924;-65
2023/01/31 11:45:21;;;;;;;;;;;19.40;43.00;;;;;;5093954;28;20316;-61
2023/01/31 11:47:50;;;;;;;;;;;19.40;43.00;;;;;;5094528;27;19920;-66
2023/01/31 11:50:21;;;;;;;;;;;19.40;43.00;;;;;;5071986;28;19985;-60
2023/01/31 11:52:48;;;;;;;;;;;19.40;42.90;;;;;;5101577;28;19966;-61
2023/01/31 11:55:16;;;;;;;;;;;19.40;43.00;;;;;;5095198;28;19928;-63
2023/01/31 11:57:43;;;;;;;;;;;19.40;43.00;;;;;;5084929;28;19997;-60
2023/01/31 12:00:18;;;;;;;;;;;19.40;43.00;;;;;;5068092;28;19928;-60
2023/01/31 12:02:45;;;;;;;;;;;19.40;43.00;;;;;;5071452;28;19974;-61
2023/01/31 12:05:14;;;;;;;;;;;19.40;43.00;;;;;;5073419;28;19996;-62
2023/01/31 12:07:41;;;;;;;;;;;19.40;43.00;;;;;;5064084;28;19966;-62
2023/01/31 12:10:23;;;;;;;;;;;19.40;43.00;;;;;;5073345;28;19959;-60
2023/01/31 12:12:51;;;;;;;;;;;19.40;43.10;;;;;;5067656;28;19984;-64
2023/01/31 12:15:18;;;;;;;;;;;19.40;43.00;;;;;;5073213;28;19959;-59
2023/01/31 12:17:45;;;;;;;;;;;19.40;43.10;;;;;;5071178;28;20428;-60
2023/01/31 12:20:17;;;;;;;;;;;19.40;43.00;;;;;;5068412;28;19951;-61
2023/01/31 12:22:44;;;;;;;;;;;19.40;43.00;;;;;;5091019;28;19949;-60
2023/01/31 12:25:14;;;;;;;;;;;19.40;43.10;;;;;;5071819;28;19963;-64
2023/01/31 12:27:44;;;;;;;;;;;19.40;43.10;;;;;;5067813;28;19928;-63
2023/01/31 12:30:15;;;;;;;;;;;19.40;43.10;;;;;;5059506;28;19925;-61
2023/01/31 12:32:49;;;;;;;;;;;19.40;43.20;;;;;;5075151;28;19971;-64
2023/01/31 12:35:40;;;;;;;;;;;19.40;43.20;;;;;;5065664;28;19920;-65
2023/01/31 12:38:11;;;;;;;;;;;19.50;43.20;;;;;;5057337;28;20308;-60
2023/01/31 12:40:39;;;;;;;;;;;19.40;43.30;;;;;;5072454;28;19959;-61
2023/01/31 12:43:11;;;;;;;;;;;19.40;43.30;;;;;;5102556;27;19970;-60
2023/01/31 12:45:44;;;;;;;;;;;19.40;43.30;;;;;;5066860;28;19924;-61
2023/01/31 12:48:18;;;;;;;;;;;19.40;43.30;;;;;;5078459;28;19969;-60
2023/01/31 12:50:45;;;;;;;;;;;19.40;43.30;;;;;;5072486;28;19936;-60
2023/01/31 12:53:18;;;;;;;;;;;19.40;43.30;;;;;;5106425;28;19920;-59
2023/01/31 12:55:47;;;;;;;;;;;19.50;43.30;;;;;;5088825;28;19924;-59
2023/01/31 12:58:18;;;;;;;;;;;19.50;43.40;;;;;;5099394;27;19927;-64
2023/01/31 13:00:46;;;;;;;;;;;19.50;43.40;;;;;;5075872;28;19928;-60
2023/01/31 13:03:30;;;;;;;;;;;19.50;43.40;;;;;;5088151;28;19970;-61
2023/01/31 13:05:58;;;;;;;;;;;19.50;43.40;;;;;;5074183;28;20408;-59
2023/01/31 13:08:26;;;;;;;;;;;19.50;43.40;;;;;;5090797;28;19982;-61
2023/01/31 13:10:54;;;;;;;;;;;19.50;43.40;;;;;;5072035;28;19966;-60
2023/01/31 13:13:22;;;;;;;;;;;19.50;43.40;;;;;;5072108;28;19973;-61
2023/01/31 13:15:49;;;;;;;;;;;19.50;43.40;;;;;;5071392;28;19942;-63
2023/01/31 13:18:16;;;;;;;;;;;19.50;43.40;;;;;;5087378;28;19950;-58
2023/01/31 13:20:44;;;;;;;;;;;19.50;43.40;;;;;;5057353;28;19924;-60
2023/01/31 13:23:12;;;;;;;;;;;19.50;43.40;;;;;;5072338;28;19938;-65
2023/01/31 13:25:41;;;;;;;;;;;19.50;43.50;;;;;;5075918;28;19978;-64
2023/01/31 13:28:12;;;;;;;;;;;19.50;43.50;;;;;;5070570;28;19920;-65
2023/01/31 13:30:39;;;;;;;;;;;19.60;43.60;;;;;;5070950;28;19924;-62
2023/01/31 13:33:08;;;;;;;;;;;19.50;43.50;;;;;;5071462;28;20394;-60
2023/01/31 13:35:35;;;;;;;;;;;19.60;43.60;;;;;;5073061;28;19927;-61
2023/01/31 13:38:03;;;;;;;;;;;19.60;43.60;;;;;;5085326;28;19927;-60
2023/01/31 13:40:31;;;;;;;;;;;19.60;43.60;;;;;;5069859;28;19927;-60
2023/01/31 13:43:00;;;;;;;;;;;19.60;43.60;;;;;;5069093;28;19920;-62
2023/01/31 13:45:27;;;;;;;;;;;19.60;43.60;;;;;;5065208;28;19981;-64
2023/01/31 13:47:56;;;;;;;;;;;19.60;43.60;;;;;;5083577;28;20219;-59
2023/01/31 13:50:27;;;;;;;;;;;19.60;43.60;;;;;;5065122;28;20313;-66
2023/01/31 13:52:55;;;;;;;;;;;19.60;43.60;;;;;;5081485;28;19974;-63
2023/01/31 13:55:23;;;;;;;;;;;19.60;43.60;;;;;;5082897;28;19925;-63
2023/01/31 13:57:52;;;;;;;;;;;19.60;43.60;;;;;;5079290;28;20374;-61
2023/01/31 14:00:26;;;;;;;;;;;19.60;43.60;;;;;;5069215;28;19920;-64
2023/01/31 14:03:00;;;;;;;;;;;19.60;43.70;;;;;;5067001;28;19920;-60
2023/01/31 14:05:47;;;;;;;;;;;19.60;43.60;;;;;;5063664;28;19920;-62
2023/01/31 14:08:44;;;;;;;;;;;19.60;43.70;;;;;;5075022;28;19978;-61
2023/01/31 14:11:29;;;;;;;;;;;19.60;43.70;;;;;;5046022;28;19929;-60
2023/01/31 14:14:10;;;;;;;;;;;19.60;43.70;;;;;;5083137;28;19973;-62
2023/01/31 14:16:39;;;;;;;;;;;19.60;43.70;;;;;;5093128;28;19985;-60
2023/01/31 14:19:21;;;;;;;;;;;19.70;43.80;;;;;;5074866;28;19977;-64
2023/01/31 14:22:03;;;;;;;;;;;19.70;43.80;;;;;;5068900;28;19927;-59
2023/01/31 14:24:48;;;;;;;;;;;19.70;43.80;;;;;;5073508;28;20405;-60
2023/01/31 14:27:17;;;;;;;;;;;19.70;43.80;;;;;;5061722;28;19928;-61
2023/01/31 14:29:44;;;;;;;;;;;19.70;43.80;;;;;;5107014;28;19981;-61
2023/01/31 14:32:15;;;;;;;;;;;19.70;43.80;;;;;;5074274;28;19947;-61
2023/01/31 14:34:46;;;;;;;;;;;19.70;43.80;;;;;;5084917;28;19966;-61
2023/01/31 14:37:14;;;;;;;;;;;19.70;43.80;;;;;;5074134;28;19993;-61